Tiempo atmosférico en la estación meteorológica de El Campillo, Huelva (415 m.)



Fecha
DESCASC
Temp. máxima en grados centígrados (hora)
DESCASC
Temp. mínima en grados centígrados (hora)
DESCASC
Temp. media en grados centígrados
DESCASC
Racha de viento máxima en m/sg (hora)
DESCASC
Velocidad máxima media en intervalos de 10 minutos(hora)
DESCASC
Precipitaciones diarias en mm
DESCASC
Precipitaciones de 00:00 a 06:00 en mm
DESCASC
Precipitaciones de 06:00 a 12:00 en mm
DESCASC
Precipitaciones de 12:00 a 18:00 en mm
DESCASC
Precipitaciones de 18:00 a 24:00 en mm
DESCASC
31-03-2020 15.1 (15:20) 7.7 (23:59) 11.4 14.72 (14:20) 8.89 (14:50) 38.4 28.8 0.8 8.6 0.2
30-03-2020 14.9 (13:50) 8.1 (07:50) 11.5 8.33 (16:50) 5 (13:20) 20.4 0 0 17.8 2.6
29-03-2020 17.6 (15:00) 8.6 (00:00) 13.1 6.39 (13:20) 3.89 (18:50) 0 0 0 0 0
28-03-2020 17.5 (16:10) 7.9 (00:00) 12.7 6.67 (12:20) 3.61 (13:10) 0 0 0 0 0
27-03-2020 17 (17:30) 4.9 (00:00) 11 9.44 (06:20) 5.83 (06:20) 0 0 0 0 0
26-03-2020 19 (16:30) 8.5 (00:00) 13.8 10.28 (14:20) 6.11 (14:30) 0 0 0 0 0
25-03-2020 17.6 (15:20) 10.1 (00:00) 13.9 7.78 (17:40) 3.89 (17:40) 1 0 0 0 1
24-03-2020 18.2 (17:10) 8.3 (00:00) 13.3 9.17 (11:50) 4.72 (12:30) 0.8 0 0 0 0.8
23-03-2020 15.5 (15:00) 7.9 (00:00) 11.7 8.89 (15:50) 5.83 (16:00) 0.2 0 0 0.2 0
22-03-2020 14.2 (16:40) 6.5 (07:50) 10.3 6.67 (17:10) 3.33 (13:40) 5 2.8 0.2 2 0
21-03-2020 10.6 (15:40) 6.4 (00:00) 8.5 8.06 (13:50) 4.17 (12:40) 11.6 2.2 0 8.8 0.6
20-03-2020 13.8 (13:00) 8.9 (00:00) 11.3 10 (20:30) 5.28 (19:40) 25.4 0 1.4 1 23
19-03-2020 19.5 (16:40) 11 (00:00) 15.3 9.17 (10:20) 4.72 (10:10) 0 0 0 0 0
18-03-2020 21.3 (16:40) 11.9 (00:00) 16.6 11.39 (00:10) 5.28 (13:50) 0 0 0 0 0
17-03-2020 14.7 (18:10) 5.1 (00:00) 9.9 12.22 (23:59) 6.67 (23:59) 2.4 0.4 1.4 0.4 0.2
16-03-2020 13.2 (16:00) 4.2 (00:00) 8.7 15.28 (17:00) 11.67 (17:00) 0.6 0 0 0 0.6
15-03-2020 20.3 (15:30) 10.6 (00:00) 15.4 11.67 (23:20) 8.61 (23:30) 0 0 0 0 0
14-03-2020 20.8 (17:10) 8.6 (00:00) 14.7 5.83 (12:20) 3.06 (12:10) 0 0 0 0 0
13-03-2020 22.1 (16:30) 10.6 (08:10) 16.4 7.78 (17:20) 3.89 (17:00) 0 0 0 0 0
12-03-2020 20.8 (13:30) 12.3 (00:00) 16.5 6.67 (13:00) 4.17 (13:00) 0 0 0 0 0
11-03-2020 27.4 (16:50) 15.1 (00:00) 21.3 8.06 (10:10) 4.17 (10:10) 0 0 0 0 0
10-03-2020 26.9 (17:00) 11.9 (00:00) 19.4 8.61 (01:30) 6.11 (01:30) 0 0 0 0 0
09-03-2020 22.4 (15:30) 8.1 (00:00) 15.3 11.94 (00:30) 8.33 (00:30) 0 0 0 0 0
08-03-2020 22 (16:20) 9.7 (00:00) 15.8 10 (22:20) 7.78 (22:20) 0 0 0 0 0
07-03-2020 19.4 (16:20) 6.4 (00:00) 12.9 11.39 (02:20) 7.5 (01:10) 0 0 0 0 0
06-03-2020 15.6 (15:50) 7.2 (00:00) 11.4 13.33 (10:30) 8.89 (11:40) 0 0 0 0 0
05-03-2020 16.2 (16:10) 9 (00:00) 12.6 12.78 (14:00) 8.89 (14:10) 0.2 0 0 0.2 0
04-03-2020 18.2 (15:40) 9.2 (00:00) 13.7 7.78 (15:10) 5 (15:50) 0 0 0 0 0

Gráficas

Temp. máximas Temp. mínimas Temp. medias Precipitaciones Rachas de viento máximas Velocidades máximas media en intervalos de 10 minutos

Datos horarios

Fecha y hora oficial Temperatura (ºC) Velocidad del viento (km/h) Dirección del viento Racha (km/h) Dirección de racha Precipitación (mm) Presión (hPa) Tendencia (hPa) Humedad (%)
2020-04-02 23:00:00 10.1 4 Norte 9 Norte 0 -- -- 73
2020-04-02 22:00:00 10.8 5 Norte 8 Norte 0 -- -- 69
2020-04-02 21:00:00 12.4 6 Norte 21 Noroeste 0 -- -- 65
2020-04-02 20:00:00 14 12 Norte 25 Norte 0 -- -- 58
2020-04-02 19:00:00 14.7 14 Nordeste 31 Norte 0 -- -- 55
2020-04-02 18:00:00 15 19 Norte 39 Norte 0 -- -- 58
2020-04-02 17:00:00 14.5 17 Norte 37 Norte 0 -- -- 57
2020-04-02 16:00:00 14.6 14 Norte 32 Norte 0 -- -- 58
2020-04-02 15:00:00 13.6 19 Norte 29 Norte 0 -- -- 61
2020-04-02 14:00:00 12.6 15 Norte 30 Norte 0 -- -- 63
2020-04-02 13:00:00 11.9 17 Norte 28 Norte 0 -- -- 69
2020-04-02 12:00:00 11 19 Norte 31 Norte 0 -- -- 71
2020-04-02 11:00:00 9.4 14 Norte 23 Norte 0 -- -- 85
2020-04-02 10:00:00 7.6 13 Norte 19 Norte 0 -- -- 93
2020-04-02 09:00:00 6.5 11 Norte 14 Norte 0 -- -- 98
2020-04-02 08:00:00 6.6 3 Norte 14 Norte 0 -- -- 98
2020-04-02 07:00:00 6.5 7 Norte 12 Noroeste 0 -- -- 98
2020-04-02 06:00:00 6.9 5 Noroeste 8 Noroeste 0 -- -- 97
2020-04-02 05:00:00 7.2 3 Noroeste 8 Noroeste 0 -- -- 97
2020-04-02 04:00:00 7.7 4 Oeste 22 Sudoeste 0 -- -- 96
2020-04-02 03:00:00 8.5 7 Oeste 14 Sudoeste 0 -- -- 97
2020-04-02 02:00:00 8.5 5 Sur 12 Sudoeste 0 -- -- 96
2020-04-02 01:00:00 8.3 5 Sur 25 Sudoeste 1.8 -- -- 95
2020-04-02 00:00:00 8.8 14 Sur 23 Sudoeste 0.8 -- -- 96
2020-04-01 23:00:00 8.8 9 Sur 22 Sur 0.4 -- -- 94
2020-04-01 22:00:00 9.2 13 Sur 22 Sur 0.4 -- -- 89
2020-04-01 21:00:00 9.6 13 Sur 30 Sur 0 -- -- 83
2020-04-01 20:00:00 10.9 20 Sur 37 Sur 0 -- -- 78
2020-04-01 19:00:00 11.1 13 Sur 23 Sur 0 -- -- 79
2020-04-01 18:00:00 10.3 9 Sur 18 Sur 0.2 -- -- 91
2020-04-01 17:00:00 8.8 3 Oeste 30 Oeste 1.8 -- -- 90
2020-04-01 16:00:00 9 4 Sur 15 Sur 1.6 -- -- 88
2020-04-01 15:00:00 9.2 9 Sur 18 Sudoeste 2.2 -- -- 90
2020-04-01 14:00:00 10 11 Sur 23 Sudoeste 0 -- -- 77
2020-04-01 13:00:00 11 13 Sudoeste 24 Sudoeste 0 -- -- 68
2020-04-01 12:00:00 11.6 13 Sur 24 Sur 0 -- -- 68
2020-04-01 11:00:00 10 5 Sudeste 10 Sur 0 -- -- 71
2020-04-01 10:00:00 8.4 3 Sudeste 6 Sudeste 0 -- -- 78
2020-04-01 09:00:00 5.7 2 Nordeste 3 Norte 0 -- -- 79
2020-04-01 08:00:00 5.5 0 Calma 5 Norte 0 -- -- 81
2020-04-01 07:00:00 5.8 4 Norte 7 Norte 0 -- -- 87
2020-04-01 06:00:00 5.5 3 Norte 7 Noroeste 0 -- -- 91
2020-04-01 05:00:00 4.9 4 Norte 11 Norte 0 -- -- 92
2020-04-01 04:00:00 5.8 3 Norte 10 Noroeste 0 -- -- 90
2020-04-01 03:00:00 6.6 9 Noroeste 13 Noroeste 0 -- -- 90
2020-04-01 02:00:00 7.7 0 Calma 8 Noroeste 0 -- -- 91
2020-04-01 01:00:00 7.6 5 Noroeste 9 Noroeste 0 -- -- 92
2020-04-01 00:00:00 7.7 6 Noroeste 10 Noroeste 0 -- -- 92
2020-03-31 23:00:00 8.1 0 Calma 8 Noroeste 0 -- -- 90
2020-03-31 22:00:00 8.9 4 Noroeste 10 Oeste 0 -- -- 88
2020-03-31 21:00:00 10.2 3 Oeste 17 Oeste 0 -- -- 86
2020-03-31 20:00:00 11.4 10 Noroeste 22 Noroeste 0 -- -- 85
2020-03-31 19:00:00 12.7 8 Oeste 19 Oeste 0.2 -- -- 86
2020-03-31 18:00:00 10.9 4 Oeste 32 Sudoeste 8.2 -- -- 93
2020-03-31 17:00:00 11.8 5 Sudoeste 38 Sur 0 -- -- 87
2020-03-31 16:00:00 13.9 15 Sudoeste 51 Sur 0 -- -- 75
2020-03-31 15:00:00 13.7 28 Sudoeste 53 Sur 0.2 -- -- 80
2020-03-31 14:00:00 14.2 30 Sur 44 Sudoeste 0.2 -- -- 78
2020-03-31 13:00:00 13.2 19 Sur 33 Sudoeste 0 -- -- 90
2020-03-31 12:00:00 12 16 Sur 27 Sur 0.6 -- -- 95
2020-03-31 11:00:00 10.8 10 Sur 18 Sur 0 -- -- 98
2020-03-31 10:00:00 9.9 10 Sur 16 Sur 0 -- -- 98
2020-03-31 09:00:00 9.2 8 Sur 15 Sudoeste 0 -- -- 98
2020-03-31 08:00:00 9.3 9 Sudoeste 27 Sudoeste 0 -- -- 98
2020-03-31 07:00:00 9.5 18 Sudoeste 29 Sudoeste 0.2 -- -- 98
2020-03-31 06:00:00 9.7 9 Sur 14 Sur 1.8 -- -- 98
2020-03-31 05:00:00 9.5 2 Oeste 12 Sudoeste 7.8 -- -- 97
2020-03-31 04:00:00 9.2 5 Nordeste 19 Sudeste 9.4 -- -- 97
2020-03-31 03:00:00 9.3 9 Sudeste 22 Este 4.8 -- -- 97
2020-03-31 02:00:00 9.2 6 Sudeste 19 Sudeste 2.4 -- -- 97
2020-03-31 01:00:00 8.9 9 Este 24 Sudeste 2.6 -- -- 96
2020-03-31 00:00:00 8.9 8 Sudeste 18 Sur 0.2 -- -- 94
2020-03-30 23:00:00 8.9 6 Este 19 Este 0 -- -- 92
2020-03-30 22:00:00 8.9 8 Este 15 Este 0 -- -- 92
2020-03-30 21:00:00 8.8 5 Este 17 Este 0.2 -- -- 94
2020-03-30 20:00:00 9.5 7 Este 14 Este 1.4 -- -- 94
2020-03-30 19:00:00 9.9 3 Este 8 Este 0.8 -- -- 92
2020-03-30 18:00:00 10.2 5 Norte 19 Oeste 1.2 -- -- 96
2020-03-30 17:00:00 9.8 11 Sudoeste 30 Sur 8 -- -- 96
2020-03-30 16:00:00 9.9 8 Norte 14 Norte 6.2 -- -- 91
2020-03-30 15:00:00 11.4 5 Sur 23 Sudoeste 2.4 -- -- 87
2020-03-30 14:00:00 14.8 11 Sur 25 Sur 0 -- -- 70
2020-03-30 13:00:00 13.3 14 Sur 23 Sudoeste 0 -- -- 82
2020-03-30 12:00:00 12.6 9 Sur 18 Sur 0 -- -- 83
2020-03-30 11:00:00 11.4 5 Sudeste 15 Sur 0 -- -- 98
2020-03-30 10:00:00 10.3 4 Sudeste 9 Sudeste 0 -- -- 98
2020-03-30 09:00:00 9.4 3 Sudeste 8 Sudeste 0 -- -- 98
2020-03-30 08:00:00 8.1 3 Sur 4 Sur 0 -- -- 97
2020-03-30 07:00:00 8.5 0 Calma 5 Sur 0 -- -- 97
2020-03-30 06:00:00 8.4 2 Sur 5 Sur 0 -- -- 97
2020-03-30 05:00:00 9.1 3 Sur 5 Sur 0 -- -- 96
2020-03-30 04:00:00 9.6 2 Norte 5 Noroeste 0 -- -- 95
2020-03-30 03:00:00 10.2 2 Oeste 5 Oeste 0 -- -- 91
2020-03-30 02:00:00 9.9 2 Oeste 6 Sur 0 -- -- 88
2020-03-30 01:00:00 10.7 0 Calma 6 Sur 0 -- -- 83
2020-03-30 00:00:00 10.7 2 Noroeste 5 Sudoeste 0 -- -- 84
2020-03-29 23:00:00 11.5 2 Oeste 7 Oeste 0 -- -- 80
2020-03-29 22:00:00 12.2 3 Oeste 9 Oeste 0 -- -- 77
2020-03-29 21:00:00 13.7 4 Sudoeste 15 Sudoeste 0 -- -- 71
2020-03-29 20:00:00 15.1 11 Sudoeste 22 Sudoeste 0 -- -- 67
2020-03-29 19:00:00 15.6 14 Sudoeste 22 Sur 0 -- -- 63
2020-03-29 18:00:00 16.3 10 Sudoeste 17 Sudoeste 0 -- -- 56
2020-03-29 17:00:00 16.3 10 Sudoeste 18 Sur 0 -- -- 58
2020-03-29 16:00:00 16.7 6 Sur 22 Sur 0 -- -- 55
2020-03-29 15:00:00 17.6 10 Sur 19 Sur 0 -- -- 55
2020-03-29 14:00:00 16.6 7 Sudoeste 23 Sudoeste 0 -- -- 60
2020-03-29 13:00:00 15.8 6 Sudoeste 13 Sudoeste 0 -- -- 62
2020-03-29 12:00:00 14.2 7 Sudoeste 15 Sudoeste 0 -- -- 68
2020-03-29 11:00:00 12.9 4 Norte 10 Norte 0 -- -- 78
2020-03-29 10:00:00 11.1 5 Norte 8 Norte 0 -- -- 88
2020-03-29 09:00:00 8.9 3 Norte 5 Norte 0 -- -- 91
2020-03-29 08:00:00 8.6 3 Norte 5 Norte 0 -- -- 92
2020-03-29 07:00:00 8.7 2 Norte 5 Norte 0 -- -- 92
2020-03-29 06:00:00 9.1 0 Calma 4 Noroeste 0 -- -- 92
2020-03-29 05:00:00 9.1 0 Calma 4 Norte 0 -- -- 93
2020-03-29 03:00:00 9.4 3 Nordeste 4 Norte 0 -- -- 92
2020-03-29 01:00:00 8.9 0 Calma 12 Sudoeste 0 -- -- 84
2020-03-29 00:00:00 9.1 2 Sudoeste 5 Sudoeste 0 -- -- 79
2020-03-28 23:00:00 10.3 3 Sudoeste 8 Sudoeste 0 -- -- 73
2020-03-28 22:00:00 11.5 3 Oeste 9 Oeste 0 -- -- 71
2020-03-28 21:00:00 12.1 3 Oeste 9 Sur 0 -- -- 69
2020-03-28 20:00:00 13.4 7 Sudoeste 13 Sudoeste 0 -- -- 64
2020-03-28 19:00:00 16.5 6 Sudeste 16 Este 0 -- -- 40
2020-03-28 18:00:00 17 7 Noroeste 14 Oeste 0 -- -- 37
2020-03-28 17:00:00 16.9 6 Este 15 Sudeste 0 -- -- 40
2020-03-28 16:00:00 17.3 6 Nordeste 20 Este 0 -- -- 42
2020-03-28 15:00:00 16.4 5 Sudeste 23 Sur 0 -- -- 46
2020-03-28 14:00:00 16.3 8 Sur 22 Sudoeste 0 -- -- 51
2020-03-28 13:00:00 15.5 13 Sur 24 Sur 0 -- -- 52
2020-03-28 12:00:00 14.2 9 Sur 19 Sudeste 0 -- -- 57
2020-03-28 11:00:00 13.4 8 Sudeste 21 Sudeste 0 -- -- 61
2020-03-28 10:00:00 11.6 8 Sudeste 18 Este 0 -- -- 70
2020-03-28 09:00:00 9.7 6 Sudeste 13 Sudeste 0 -- -- 74
2020-03-28 08:00:00 8.1 3 Este 11 Este 0 -- -- 80
2020-03-28 07:00:00 7.9 5 Este 17 Este 0 -- -- 79
2020-03-28 06:00:00 8.3 9 Este 18 Este 0 -- -- 77
2020-03-28 05:00:00 8.1 8 Este 18 Este 0 -- -- 80
2020-03-28 04:00:00 8 8 Este 16 Este 0 -- -- 76
2020-03-28 03:00:00 8.2 6 Este 14 Este 0 -- -- 73
2020-03-28 02:00:00 8.5 8 Este 15 Este 0 -- -- 72
2020-03-28 01:00:00 8.7 6 Nordeste 15 Nordeste 0 -- -- 78
2020-03-28 00:00:00 9.6 10 Nordeste 14 Este 0 -- -- 77
2020-03-27 23:00:00 10.1 4 Este 10 Nordeste 0 -- -- 76
2020-03-27 22:00:00 11 5 Este 13 Norte 0 -- -- 72
2020-03-27 21:00:00 10.8 9 Norte 15 Norte 0 -- -- 68
2020-03-27 20:00:00 12.5 5 Noroeste 22 Oeste 0 -- -- 59
2020-03-27 19:00:00 15.2 8 Oeste 24 Sur 0 -- -- 50
2020-03-27 18:00:00 15.5 12 Sudoeste 21 Sudoeste 0 -- -- 48
2020-03-27 17:00:00 16.7 8 Oeste 21 Oeste 0 -- -- 46
2020-03-27 16:00:00 16 9 Oeste 18 Noroeste 0 -- -- 47
2020-03-27 15:00:00 15.4 8 Noroeste 20 Oeste 0 -- -- 47
2020-03-27 14:00:00 14.6 10 Oeste 23 Noroeste 0 -- -- 54
2020-03-27 13:00:00 13.5 11 Sudoeste 22 Sudoeste 0 -- -- 59
2020-03-27 12:00:00 12.6 9 Oeste 16 Sur 0 -- -- 68
2020-03-27 11:00:00 11.3 5 Oeste 16 Noroeste 0 -- -- 73
2020-03-27 10:00:00 9 8 Noroeste 18 Noroeste 0 -- -- 83
2020-03-27 09:00:00 7.2 9 Noroeste 21 Norte 0 -- -- 91
2020-03-27 08:00:00 5.1 10 Noroeste 22 Noroeste 0 -- -- 95
2020-03-27 07:00:00 5.1 16 Noroeste 34 Noroeste 0 -- -- 95
2020-03-27 06:00:00 5.2 17 Noroeste 27 Noroeste 0 -- -- 96
2020-03-27 05:00:00 5.6 15 Noroeste 26 Noroeste 0 -- -- 97
2020-03-27 04:00:00 6.4 11 Noroeste 21 Noroeste 0 -- -- 96
2020-03-27 03:00:00 6.8 8 Noroeste 14 Noroeste 0 -- -- 96
2020-03-27 02:00:00 7.8 5 Noroeste 12 Oeste 0 -- -- 93
2020-03-27 01:00:00 8.9 4 Oeste 13 Norte 0 -- -- 88
2020-03-27 00:00:00 9.4 7 Noroeste 14 Noroeste 0 -- -- 83
2020-03-26 23:00:00 10.9 9 Noroeste 22 Noroeste 0 -- -- 73
2020-03-26 22:00:00 12.1 13 Noroeste 24 Noroeste 0 -- -- 65
2020-03-26 21:00:00 13 11 Noroeste 22 Noroeste 0 -- -- 61
2020-03-26 20:00:00 14.4 8 Noroeste 29 Noroeste 0 -- -- 55
2020-03-26 19:00:00 16.2 16 Noroeste 29 Noroeste 0 -- -- 47
2020-03-26 18:00:00 18 14 Noroeste 32 Noroeste 0 -- -- 42
2020-03-26 17:00:00 18.4 14 Noroeste 32 Noroeste 0 -- -- 44
2020-03-26 16:00:00 18.3 17 Noroeste 33 Noroeste 0 -- -- 43
2020-03-26 15:00:00 18.2 20 Noroeste 37 Noroeste 0 -- -- 44
2020-03-26 14:00:00 18.3 14 Noroeste 34 Oeste 0 -- -- 46
2020-03-26 13:00:00 17.2 12 Oeste 24 Sudoeste 0 -- -- 58
2020-03-26 12:00:00 15.3 12 Noroeste 22 Noroeste 0 -- -- 72
2020-03-26 11:00:00 13.2 13 Noroeste 22 Noroeste 0 -- -- 84
2020-03-26 10:00:00 10.8 9 Noroeste 15 Noroeste 0 -- -- 99
2020-03-26 09:00:00 8.6 9 Noroeste 14 Norte 0 -- -- 98
2020-03-26 08:00:00 8.8 9 Noroeste 20 Noroeste 0 -- -- 98
2020-03-26 07:00:00 9.2 12 Norte 17 Norte 0 -- -- 98
2020-03-26 06:00:00 9.5 5 Noroeste 14 Noroeste 0 -- -- 98
2020-03-26 05:00:00 10.2 6 Noroeste 14 Oeste 0 -- -- 97
2020-03-26 04:00:00 10.5 7 Noroeste 13 Noroeste 0 -- -- 97
2020-03-26 03:00:00 10.8 6 Noroeste 15 Noroeste 0 -- -- 97
2020-03-26 02:00:00 11.2 8 Noroeste 15 Noroeste 0 -- -- 97
2020-03-26 01:00:00 11.3 3 Noroeste 10 Oeste 0 -- -- 97
2020-03-26 00:00:00 11.6 4 Noroeste 16 Noroeste 0 -- -- 97
2020-03-25 23:00:00 11.2 5 Noroeste 18 Noroeste 0 -- -- 96
2020-03-25 22:00:00 11.3 6 Oeste 15 Oeste 0 -- -- 95
2020-03-25 21:00:00 11.2 8 Norte 25 Sudoeste 0 -- -- 89
2020-03-25 20:00:00 12.4 10 Sudoeste 18 Sudoeste 0.8 -- -- 85
2020-03-25 19:00:00 14.1 8 Sudoeste 21 Sudoeste 0.2 -- -- 83
2020-03-25 18:00:00 16.3 11 Oeste 28 Sudoeste 0 -- -- 70
2020-03-25 17:00:00 17.1 10 Sudoeste 22 Sudoeste 0 -- -- 68
2020-03-25 16:00:00 17.1 12 Oeste 22 Sudoeste 0 -- -- 67
2020-03-25 15:00:00 16.9 9 Oeste 21 Sudoeste 0 -- -- 69
2020-03-25 14:00:00 15.8 7 Oeste 22 Sudoeste 0 -- -- 69
2020-03-25 13:00:00 14.5 8 Sudoeste 15 Sudoeste 0 -- -- 70
2020-03-25 12:00:00 15.1 6 Sur 17 Sur 0 -- -- 65
2020-03-25 11:00:00 13.2 5 Sur 10 Sur 0 -- -- 75
2020-03-25 10:00:00 12 3 Sudoeste 9 Sur 0 -- -- 80
2020-03-25 09:00:00 11.3 4 Sur 7 Sur 0 -- -- 82
2020-03-25 08:00:00 10.4 3 Sur 6 Sur 0 -- -- 86
2020-03-25 07:00:00 10.1 3 Sudeste 8 Sudeste 0 -- -- 87
2020-03-25 06:00:00 11 0 Calma 2 Norte 0 -- -- 84
2020-03-25 05:00:00 11 0 Calma 2 Noroeste 0 -- -- 85
2020-03-25 04:00:00 11.2 0 Calma 11 Este 0 -- -- 84
2020-03-25 03:00:00 11.7 7 Este 15 Este 0 -- -- 77
2020-03-25 02:00:00 11.9 9 Este 15 Este 0 -- -- 78
2020-03-25 01:00:00 12.2 8 Este 14 Nordeste 0 -- -- 80
2020-03-25 00:00:00 12.2 9 Nordeste 14 Nordeste 0 -- -- 79
2020-03-24 23:00:00 12.8 7 Nordeste 12 Norte 0 -- -- 81
2020-03-24 22:00:00 13.4 8 Este 13 Este 0.2 -- -- 79
2020-03-24 21:00:00 14.6 8 Este 11 Sudeste 0.6 -- -- 71
2020-03-24 20:00:00 15.7 4 Sur 13 Sur 0 -- -- 66
2020-03-24 19:00:00 17.2 0 Calma 11 Nordeste 0 -- -- 56
2020-03-24 18:00:00 17.9 5 Este 17 Nordeste 0 -- -- 53
2020-03-24 17:00:00 17.7 8 Nordeste 18 Norte 0 -- -- 56
2020-03-24 16:00:00 17.5 13 Nordeste 23 Norte 0 -- -- 55
2020-03-24 15:00:00 16.8 7 Este 19 Sudeste 0 -- -- 58
2020-03-24 14:00:00 16.3 8 Nordeste 24 Este 0 -- -- 60
2020-03-24 13:00:00 16.9 13 Este 28 Nordeste 0 -- -- 57
2020-03-24 12:00:00 15.9 15 Nordeste 33 Norte 0 -- -- 60
2020-03-24 11:00:00 15 12 Nordeste 27 Nordeste 0 -- -- 62
2020-03-24 10:00:00 13.6 12 Nordeste 25 Este 0 -- -- 66
2020-03-24 09:00:00 12.2 13 Nordeste 24 Nordeste 0 -- -- 70
2020-03-24 08:00:00 9.9 11 Nordeste 24 Nordeste 0 -- -- 79
2020-03-24 07:00:00 9.7 13 Nordeste 21 Nordeste 0 -- -- 79
2020-03-24 06:00:00 9 13 Nordeste 19 Nordeste 0 -- -- 82
2020-03-24 05:00:00 8.7 7 Nordeste 17 Nordeste 0 -- -- 84
2020-03-24 04:00:00 8.6 9 Nordeste 16 Este 0 -- -- 86
2020-03-24 03:00:00 8.8 8 Este 15 Nordeste 0 -- -- 85
2020-03-24 02:00:00 8.7 5 Este 13 Nordeste 0 -- -- 85
2020-03-24 01:00:00 9.1 7 Nordeste 17 Nordeste 0 -- -- 82
2020-03-24 00:00:00 9.5 12 Nordeste 19 Nordeste 0 -- -- 81
2020-03-23 23:00:00 10 6 Nordeste 19 Nordeste 0 -- -- 77
2020-03-23 22:00:00 9.9 9 Nordeste 18 Nordeste 0 -- -- 72
2020-03-23 21:00:00 10.3 8 Nordeste 18 Nordeste 0 -- -- 76
2020-03-23 20:00:00 10.9 7 Nordeste 14 Nordeste 0 -- -- 70
2020-03-23 19:00:00 11.3 7 Nordeste 28 Norte 0 -- -- 73
2020-03-23 18:00:00 13.6 17 Norte 28 Norte 0 -- -- 66
2020-03-23 17:00:00 12.9 6 Nordeste 32 Nordeste 0.2 -- -- 64
2020-03-23 16:00:00 12.2 21 Nordeste 32 Nordeste 0 -- -- 67
2020-03-23 15:00:00 15.5 6 Este 21 Norte 0 -- -- 55
2020-03-23 14:00:00 14.5 10 Nordeste 21 Nordeste 0 -- -- 63
2020-03-23 13:00:00 12.8 10 Nordeste 19 Nordeste 0 -- -- 67
2020-03-23 12:00:00 12.6 9 Este 21 Nordeste 0 -- -- 72
2020-03-23 11:00:00 12.5 8 Este 19 Este 0 -- -- 74
2020-03-23 10:00:00 11.2 5 Este 14 Este 0 -- -- 79
2020-03-23 09:00:00 10 3 Este 9 Este 0 -- -- 81
2020-03-23 08:00:00 8.8 6 Este 13 Este 0 -- -- 84
2020-03-23 07:00:00 8.7 10 Este 12 Este 0 -- -- 84
2020-03-23 06:00:00 8.9 6 Este 10 Este 0 -- -- 85
2020-03-23 05:00:00 8.7 7 Este 10 Nordeste 0 -- -- 85
2020-03-23 04:00:00 7.9 0 Calma 4 Sur 0 -- -- 91
2020-03-23 03:00:00 8.5 4 Sur 11 Nordeste 0 -- -- 86
2020-03-23 02:00:00 8.5 6 Nordeste 10 Nordeste 0 -- -- 89
2020-03-23 01:00:00 8.5 3 Norte 5 Nordeste 0 -- -- 88
2020-03-23 00:00:00 8.6 2 Norte 4 Norte 0 -- -- 88
2020-03-22 23:00:00 8.4 3 Oeste 5 Sudoeste 0 -- -- 85
2020-03-22 22:00:00 9.4 0 Calma -- -- 0 -- -- 79
2020-03-22 21:00:00 9.4 0 Calma 7 Este 0 -- -- 81
2020-03-22 20:00:00 10.6 6 Este 9 Este 0 -- -- 80
2020-03-22 19:00:00 12.1 3 Sur 8 Sudeste 0 -- -- 77
2020-03-22 18:00:00 11.4 3 Norte 24 Este 0 -- -- 73
2020-03-22 17:00:00 13.7 5 Este 15 Norte 0 -- -- 69
2020-03-22 16:00:00 13.1 7 Sudoeste 13 Sudoeste 0 -- -- 69
2020-03-22 15:00:00 11.5 0 Calma 15 Norte 2 -- -- 83
2020-03-22 14:00:00 11.7 5 Nordeste 23 Nordeste 0 -- -- 81
2020-03-22 13:00:00 11 5 Nordeste 15 Este 0 -- -- 77
2020-03-22 12:00:00 10.8 8 Nordeste 19 Nordeste 0 -- -- 75
2020-03-22 11:00:00 10.3 8 Este 18 Nordeste 0.2 -- -- 81
2020-03-22 10:00:00 9.1 7 Nordeste 18 Nordeste 0 -- -- 92
2020-03-22 09:00:00 8.1 8 Nordeste 9 Nordeste 0 -- -- 96
2020-03-22 08:00:00 6.5 5 Este 9 Este 0 -- -- 97
2020-03-22 07:00:00 6.7 4 Nordeste 12 Este 0 -- -- 97
2020-03-22 06:00:00 7 5 Este 9 Este 0.2 -- -- 97
2020-03-22 05:00:00 7.3 3 Este 6 Sudeste 1 -- -- 97
2020-03-22 04:00:00 7.3 2 Este 6 Sudeste 0.6 -- -- 97
2020-03-22 03:00:00 7.4 4 Este 6 Este 0.2 -- -- 97
2020-03-22 02:00:00 7.3 2 Sudeste 6 Sudeste 0 -- -- 96
2020-03-22 01:00:00 7.3 3 Sur 13 Sur 0.8 -- -- 95
2020-03-22 00:00:00 7.4 6 Sur 13 Sur 0.4 -- -- 95
2020-03-21 23:00:00 7.3 5 Sudeste 12 Sur 0 -- -- 96
2020-03-21 22:00:00 7.3 6 Sudeste 12 Sur 0.2 -- -- 95
2020-03-21 21:00:00 7.4 5 Sur 13 Sur 0 -- -- 96
2020-03-21 20:00:00 7.6 6 Sur 10 Sudeste 0 -- -- 92
2020-03-21 19:00:00 9.2 5 Sur 8 Sur 0 -- -- 86
2020-03-21 18:00:00 9.2 3 Noroeste 12 Sudoeste 0.8 -- -- 86
2020-03-21 17:00:00 7.6 2 Oeste 24 Sudoeste 6 -- -- 92
2020-03-21 16:00:00 10.2 7 Sudeste 19 Sudeste 0 -- -- 85
2020-03-21 15:00:00 10.5 9 Sudeste 26 Sur 0.2 -- -- 85
2020-03-21 14:00:00 9.3 10 Sur 29 Sudeste 0.2 -- -- 88
2020-03-21 13:00:00 9.1 13 Sur 24 Sur 1.6 -- -- 94
2020-03-21 12:00:00 9.5 10 Sur 22 Sur 0 -- -- 90
2020-03-21 11:00:00 9.9 8 Sur 22 Sur 0 -- -- 90
2020-03-21 10:00:00 8.8 8 Sudeste 16 Sudeste 0 -- -- 97
2020-03-21 09:00:00 7.7 3 Sudeste 10 Sudeste 0 -- -- 98
2020-03-21 08:00:00 6.5 3 Sudeste 4 Sudeste 0 -- -- 97
2020-03-21 07:00:00 7.2 0 Calma 9 Sudoeste 0 -- -- 97
2020-03-21 06:00:00 7.6 5 Sudoeste 11 Oeste 0 -- -- 97
2020-03-21 05:00:00 7.6 5 Oeste 17 Oeste 0 -- -- 97
2020-03-21 04:00:00 7.9 8 Oeste 19 Sudoeste 0 -- -- 97
2020-03-21 03:00:00 7.9 8 Oeste 23 Oeste 0 -- -- 97
2020-03-21 02:00:00 8.4 10 Oeste 23 Oeste 0 -- -- 97
2020-03-21 01:00:00 8.6 10 Norte 19 Norte 2.2 -- -- 97
2020-03-21 00:00:00 8.9 4 Oeste 15 Sudoeste 5.6 -- -- 97
2020-03-20 23:00:00 9.4 4 Norte 22 Oeste 3.2 -- -- 97
2020-03-20 22:00:00 9.4 11 Oeste 26 Sudoeste 6.4 -- -- 96
2020-03-20 21:00:00 11.5 12 Sur 36 Sur 5.2 -- -- 96
2020-03-20 20:00:00 12.5 14 Sur 31 Sur 2.6 -- -- 94
2020-03-20 19:00:00 13.6 6 Sudeste 17 Este 0 -- -- 87
2020-03-20 18:00:00 13.4 5 Sudeste 12 Sudeste 0 -- -- 89
2020-03-20 17:00:00 13.1 3 Este 12 Sudeste 0.2 -- -- 91
2020-03-20 16:00:00 13 4 Sudeste 12 Sur 0.4 -- -- 91
2020-03-20 15:00:00 12.4 8 Sur 25 Sur 0.2 -- -- 90
2020-03-20 14:00:00 13.4 13 Sudeste 23 Sur 0 -- -- 80
2020-03-20 13:00:00 13.8 7 Sudeste 18 Sur 0.2 -- -- 85
2020-03-20 12:00:00 13 3 Sudeste 10 Este 1.4 -- -- 92
2020-03-20 11:00:00 12.5 5 Sur 11 Sudeste 0 -- -- 89
2020-03-20 10:00:00 12.7 5 Sur 9 Sudeste 0 -- -- 85
2020-03-20 09:00:00 12 0 Calma 8 Sudeste 0 -- -- 93
2020-03-20 08:00:00 11.5 5 Este 7 Este 0 -- -- 93
2020-03-20 07:00:00 11.8 3 Norte 6 Norte 0 -- -- 93
2020-03-20 06:00:00 11.9 4 Norte 7 Norte 0 -- -- 93
2020-03-20 05:00:00 11.8 3 Norte 5 Norte 0 -- -- 92
2020-03-20 04:00:00 11.8 3 Norte 8 Norte 0 -- -- 93
2020-03-20 03:00:00 11.7 3 Noroeste 6 Oeste 0 -- -- 92
2020-03-20 02:00:00 11.8 3 Oeste 10 Oeste 0 -- -- 91
2020-03-20 01:00:00 11.8 4 Oeste 17 Sur 0 -- -- 88
2020-03-20 00:00:00 13.1 5 Sur 10 Sudeste 0 -- -- 70
2020-03-19 23:00:00 14.4 4 Sudeste 12 Este 0 -- -- 63
2020-03-19 22:00:00 14.8 7 Este 16 Nordeste 0 -- -- 61
2020-03-19 21:00:00 15.2 6 Nordeste 9 Nordeste 0 -- -- 59
2020-03-19 20:00:00 16.1 5 Nordeste 9 Nordeste 0 -- -- 57
2020-03-19 19:00:00 17.8 6 Nordeste 12 Este 0 -- -- 52
2020-03-19 18:00:00 18.7 8 Este 18 Sudeste 0 -- -- 46
2020-03-19 17:00:00 19.4 8 Sudeste 24 Este 0 -- -- 45
2020-03-19 16:00:00 19.1 8 Este 19 Nordeste 0 -- -- 48
2020-03-19 15:00:00 18.1 8 Nordeste 19 Este 0 -- -- 53
2020-03-19 14:00:00 17.9 6 Este 21 Nordeste 0 -- -- 54
2020-03-19 13:00:00 16.5 9 Nordeste 24 Este 0 -- -- 59
2020-03-19 12:00:00 16.5 12 Este 29 Este 0 -- -- 58
2020-03-19 11:00:00 15.5 12 Este 33 Nordeste 0 -- -- 61
2020-03-19 10:00:00 13.9 15 Nordeste 27 Nordeste 0 -- -- 67
2020-03-19 09:00:00 12.4 9 Nordeste 25 Nordeste 0 -- -- 73
2020-03-19 08:00:00 11.4 9 Nordeste 18 Nordeste 0 -- -- 79
2020-03-19 07:00:00 11.5 11 Nordeste 17 Nordeste 0 -- -- 77
2020-03-19 06:00:00 11 8 Nordeste 13 Nordeste 0 -- -- 80
2020-03-19 05:00:00 11.2 8 Nordeste 14 Nordeste 0 -- -- 79
2020-03-19 04:00:00 11.2 0 Calma 4 Este 0 -- -- 75
2020-03-19 03:00:00 11.5 3 Sur 6 Sur 0 -- -- 75
2020-03-19 02:00:00 12.3 0 Calma 7 Sur 0 -- -- 70
2020-03-19 01:00:00 13.8 4 Sudeste 18 Este 0 -- -- 63
2020-03-19 00:00:00 14.6 6 Sudeste 13 Este 0 -- -- 61
2020-03-18 23:00:00 15 6 Este 14 Este 0 -- -- 60
2020-03-18 22:00:00 15.7 6 Este 12 Este 0 -- -- 58
2020-03-18 21:00:00 16.9 7 Este 16 Este 0 -- -- 54
2020-03-18 20:00:00 17.8 5 Este 20 Este 0 -- -- 49
2020-03-18 19:00:00 19.5 8 Este 21 Este 0 -- -- 44
2020-03-18 18:00:00 20.9 8 Este 32 Este 0 -- -- 40
2020-03-18 17:00:00 21.3 12 Este 37 Nordeste 0 -- -- 40
2020-03-18 16:00:00 21.2 13 Este 39 Nordeste 0 -- -- 42
2020-03-18 15:00:00 21.1 17 Este 38 Este 0 -- -- 41
2020-03-18 14:00:00 20.9 11 Este 39 Nordeste 0 -- -- 42
2020-03-18 13:00:00 20 15 Este 32 Este 0 -- -- 43
2020-03-18 12:00:00 17.8 12 Este 37 Este 0 -- -- 49
2020-03-18 11:00:00 17.3 12 Este 31 Este 0 -- -- 53
2020-03-18 10:00:00 14.7 14 Este 31 Este 0 -- -- 59
2020-03-18 09:00:00 13.8 14 Este 31 Nordeste 0 -- -- 63
2020-03-18 08:00:00 12.4 12 Nordeste 25 Este 0 -- -- 70
2020-03-18 07:00:00 12.2 13 Nordeste 22 Este 0 -- -- 72
2020-03-18 06:00:00 11.9 8 Este 21 Nordeste 0 -- -- 73
2020-03-18 05:00:00 12.2 8 Este 34 Este 0 -- -- 70
2020-03-18 04:00:00 12.9 15 Este 38 Nordeste 0 -- -- 68
2020-03-18 03:00:00 12.8 8 Este 19 Este 0 -- -- 64
2020-03-18 02:00:00 13.4 7 Este 18 Nordeste 0 -- -- 59
2020-03-18 01:00:00 13.8 10 Nordeste 41 Este 0 -- -- 56
2020-03-18 00:00:00 13.8 24 Nordeste 44 Nordeste 0 -- -- 53
2020-03-17 23:00:00 13.3 17 Nordeste 35 Nordeste 0 -- -- 51
2020-03-17 22:00:00 12 8 Nordeste 27 Nordeste 0.2 -- -- 56
2020-03-17 21:00:00 11 8 Nordeste 12 Nordeste 0 -- -- 65
2020-03-17 20:00:00 12.5 6 Nordeste 16 Nordeste 0 -- -- 51
2020-03-17 19:00:00 13.4 7 Este 30 Este 0 -- -- 44
2020-03-17 18:00:00 14.4 10 Este 32 Este 0 -- -- 43
2020-03-17 17:00:00 14.6 10 Este 42 Este 0 -- -- 46
2020-03-17 16:00:00 13.1 13 Este 42 Este 0 -- -- 52
2020-03-17 15:00:00 13.6 12 Este 35 Sudeste 0 -- -- 54
2020-03-17 14:00:00 11.8 11 Este 31 Sudeste 0 -- -- 69
2020-03-17 13:00:00 9 13 Este 36 Sudeste 0.4 -- -- 90
2020-03-17 12:00:00 7.3 14 Sudeste 35 Sudeste 0.2 -- -- 91
2020-03-17 11:00:00 6.3 12 Este 31 Este 0.8 -- -- 94
2020-03-17 10:00:00 5.7 9 Este 25 Sudeste 0.4 -- -- 93
2020-03-17 09:00:00 5.6 13 Nordeste 33 Este 0 -- -- 92
2020-03-17 08:00:00 5.3 13 Nordeste 26 Este 0 -- -- 92
2020-03-17 07:00:00 5.3 9 Nordeste 19 Nordeste 0 -- -- 90
2020-03-17 06:00:00 5.5 8 Nordeste 17 Nordeste 0 -- -- 90
2020-03-17 05:00:00 5.4 4 Nordeste 9 Nordeste 0.4 -- -- 92
2020-03-17 04:00:00 5.5 3 Este 7 Sudeste 0 -- -- 91
2020-03-17 03:00:00 5.6 4 Este 12 Nordeste 0 -- -- 91
2020-03-17 02:00:00 5.2 0 Calma 8 Norte 0 -- -- 92
2020-03-17 01:00:00 5.7 8 Norte 17 Norte 0 -- -- 91
2020-03-17 00:00:00 6.2 13 Noroeste 30 Noroeste 0 -- -- 90
2020-03-16 23:00:00 6 22 Noroeste 47 Noroeste 0.6 -- -- 91
2020-03-16 22:00:00 7.7 30 Norte 45 Noroeste 0 -- -- 74
2020-03-16 21:00:00 8 13 Noroeste 39 Norte 0 -- -- 67
2020-03-16 20:00:00 9.2 27 Norte 41 Norte 0 -- -- 60
2020-03-16 19:00:00 10.9 27 Norte 46 Noroeste 0 -- -- 48
2020-03-16 18:00:00 11.2 26 Noroeste 52 Norte 0 -- -- 48
2020-03-16 17:00:00 11.9 42 Norte 55 Norte 0 -- -- 46
2020-03-16 16:00:00 13.2 33 Norte 54 Noroeste 0 -- -- 39
2020-03-16 15:00:00 12.8 31 Norte 50 Norte 0 -- -- 40
2020-03-16 14:00:00 12.9 28 Noroeste 45 Noroeste 0 -- -- 41
2020-03-16 13:00:00 11.9 25 Noroeste 36 Noroeste 0 -- -- 47
2020-03-16 12:00:00 10.9 18 Noroeste 39 Norte 0 -- -- 51
2020-03-16 11:00:00 9.2 22 Norte 42 Norte 0 -- -- 57
2020-03-16 10:00:00 7.1 30 Norte 42 Noroeste 0 -- -- 65
2020-03-16 09:00:00 5.7 25 Norte 34 Norte 0 -- -- 74
2020-03-16 08:00:00 4.4 15 Noroeste 25 Noroeste 0 -- -- 81
2020-03-16 07:00:00 4.7 18 Noroeste 33 Noroeste 0 -- -- 79
2020-03-16 06:00:00 5.2 22 Norte 46 Norte 0 -- -- 72
2020-03-16 05:00:00 5.2 29 Norte 40 Norte 0 -- -- 72
2020-03-16 04:00:00 5.5 23 Norte 51 Noroeste 0 -- -- 71
2020-03-16 03:00:00 6.4 32 Noroeste 47 Norte 0 -- -- 65
2020-03-16 02:00:00 7.8 33 Norte 48 Norte 0 -- -- 63
2020-03-16 01:00:00 9.4 32 Norte 49 Noroeste 0 -- -- 61
2020-03-16 00:00:00 11 30 Norte 42 Norte 0 -- -- 69
2020-03-15 23:00:00 13.1 22 Noroeste 42 Noroeste 0 -- -- 64
2020-03-15 22:00:00 14.7 8 Noroeste 18 Sudoeste 0 -- -- 76
2020-03-15 21:00:00 14.7 9 Sudoeste 20 Sudoeste 0 -- -- 75
2020-03-15 20:00:00 15.2 12 Sudoeste 27 Sudoeste 0 -- -- 73
2020-03-15 19:00:00 16.9 15 Sudoeste 26 Sudoeste 0 -- -- 65
2020-03-15 18:00:00 18.9 17 Sudoeste 28 Sudoeste 0 -- -- 55
2020-03-15 17:00:00 20.3 13 Sudoeste 27 Sudoeste 0 -- -- 53
2020-03-15 16:00:00 20.2 17 Sudoeste 27 Sudoeste 0 -- -- 54
2020-03-15 15:00:00 20.1 11 Sudoeste 27 Sudoeste 0 -- -- 56
2020-03-15 14:00:00 19.3 10 Sudoeste 23 Sudoeste 0 -- -- 59
2020-03-15 13:00:00 18.7 6 Oeste 18 Oeste 0 -- -- 65
2020-03-15 12:00:00 16.9 7 Oeste 23 Sudoeste 0 -- -- 70
2020-03-15 11:00:00 16.3 8 Oeste 23 Sudoeste 0 -- -- 75
2020-03-15 10:00:00 14.7 10 Sudoeste 17 Sudoeste 0 -- -- 81
2020-03-15 09:00:00 12.5 8 Sur 10 Sur 0 -- -- 91
2020-03-15 08:00:00 10.6 0 Calma 11 Sudeste 0 -- -- 93
2020-03-15 07:00:00 11.4 8 Sudeste 11 Sudeste 0 -- -- 89
2020-03-15 06:00:00 12.4 0 Calma 3 Norte 0 -- -- 84
2020-03-15 05:00:00 12.3 0 Calma 5 Sur 0 -- -- 88
2020-03-15 04:00:00 12.2 0 Calma 11 Sudeste 0 -- -- 89
2020-03-15 03:00:00 13.8 5 Sudeste 13 Sudeste 0 -- -- 84
2020-03-15 02:00:00 14.1 4 Norte 5 Norte 0 -- -- 84
2020-03-15 01:00:00 14.5 2 Norte 4 Norte 0 -- -- 83
2020-03-15 00:00:00 14.5 3 Norte 5 Norte 0 -- -- 83
2020-03-14 23:00:00 14.5 4 Norte 8 Norte 0 -- -- 82
2020-03-14 22:00:00 15.1 3 Norte 8 Norte 0 -- -- 79
2020-03-14 21:00:00 15.5 3 Noroeste 8 Noroeste 0 -- -- 77
2020-03-14 20:00:00 17.3 2 Noroeste 7 Noroeste 0 -- -- 69
2020-03-14 19:00:00 19.3 5 Oeste 15 Sudoeste 0 -- -- 65
2020-03-14 18:00:00 20.7 6 Oeste 14 Sudoeste 0 -- -- 59
2020-03-14 17:00:00 20.7 9 Sudoeste 18 Sudoeste 0 -- -- 58
2020-03-14 16:00:00 20.2 9 Sur 19 Sur 0 -- -- 62
2020-03-14 15:00:00 19.8 11 Sudoeste 21 Sur 0 -- -- 66
2020-03-14 14:00:00 18.9 5 Sudoeste 17 Sudoeste 0 -- -- 65
2020-03-14 13:00:00 16.9 9 Sudoeste 21 Sur 0 -- -- 74
2020-03-14 12:00:00 14.9 9 Sur 16 Sur 0 -- -- 81
2020-03-14 11:00:00 11.6 6 Sur 10 Sur 0 -- -- 92
2020-03-14 10:00:00 10.2 5 Sur 12 Sudeste 0 -- -- 96
2020-03-14 09:00:00 9.2 6 Sur 11 Sur 0 -- -- 94
2020-03-14 08:00:00 9.3 0 Calma 9 Sudeste 0 -- -- 89
2020-03-14 07:00:00 10.9 3 Sudeste 10 Sudeste 0 -- -- 89
2020-03-14 06:00:00 10.9 3 Sudeste 9 Sudeste 0 -- -- 90
2020-03-14 05:00:00 9.7 0 Calma 7 Sudeste 0 -- -- 90
2020-03-14 04:00:00 10.7 2 Sudeste 6 Sudeste 0 -- -- 84
2020-03-14 03:00:00 11.4 4 Sudeste 10 Sur 0 -- -- 82
2020-03-14 02:00:00 12.7 5 Sudeste 10 Sudeste 0 -- -- 80
2020-03-14 01:00:00 13.1 4 Nordeste 8 Nordeste 0 -- -- 70
2020-03-14 00:00:00 12.7 7 Norte 10 Norte 0 -- -- 75
2020-03-13 23:00:00 12.7 7 Norte 9 Norte 0 -- -- 75
2020-03-13 22:00:00 13.3 3 Noroeste 8 Noroeste 0 -- -- 79
2020-03-13 21:00:00 14.4 3 Noroeste 11 Noroeste 0 -- -- 76
2020-03-13 20:00:00 16 5 Oeste 12 Sudoeste 0 -- -- 70
2020-03-13 19:00:00 18.7 6 Oeste 20 Oeste 0 -- -- 57
2020-03-13 18:00:00 21.3 9 Oeste 28 Sudoeste 0 -- -- 45
2020-03-13 17:00:00 21.8 14 Sudoeste 27 Sudoeste 0 -- -- 47
2020-03-13 16:00:00 22 11 Sudoeste 24 Sudoeste 0 -- -- 44
2020-03-13 15:00:00 21.3 12 Sudoeste 25 Sudoeste 0 -- -- 55
2020-03-13 14:00:00 20.5 10 Oeste 19 Sudoeste 0 -- -- 60
2020-03-13 13:00:00 19.2 8 Oeste 15 Noroeste 0 -- -- 60
2020-03-13 12:00:00 18 6 Sudoeste 16 Sudoeste 0 -- -- 72
2020-03-13 11:00:00 15.6 6 Sudoeste 12 Sur 0 -- -- 78
2020-03-13 10:00:00 13.3 7 Sur 10 Sur 0 -- -- 89
2020-03-13 09:00:00 12.1 0 Calma 3 Noroeste 0 -- -- 96
2020-03-13 08:00:00 10.7 2 Sur 4 Sur 0 -- -- 95
2020-03-13 07:00:00 11.1 0 Calma 2 Sur 0 -- -- 94
2020-03-13 06:00:00 10.9 0 Calma 8 Sudeste 0 -- -- 90
2020-03-13 05:00:00 12.6 2 Sur 7 Norte 0 -- -- 86
2020-03-13 04:00:00 13.4 4 Norte 8 Norte 0 -- -- 86
2020-03-13 03:00:00 13.2 5 Norte 8 Nordeste 0 -- -- 87
2020-03-13 02:00:00 13.2 4 Norte 8 Norte 0 -- -- 86
2020-03-13 01:00:00 12.7 6 Norte 10 Norte 0 -- -- 86
2020-03-13 00:00:00 13.3 5 Norte 9 Norte 0 -- -- 86
2020-03-12 23:00:00 13.5 4 Norte 5 Norte 0 -- -- 83
2020-03-12 22:00:00 13.8 0 Calma 5 Sur 0 -- -- 81
2020-03-12 21:00:00 14.4 5 Sur 9 Sur 0 -- -- 75
2020-03-12 20:00:00 15.9 4 Sur 8 Sur 0 -- -- 64
2020-03-12 19:00:00 19.1 4 Sur 8 Sudoeste 0 -- -- 51
2020-03-12 18:00:00 19.1 3 Sudoeste 16 Sur 0 -- -- 50
2020-03-12 17:00:00 19 10 Sur 15 Sudoeste 0 -- -- 52
2020-03-12 16:00:00 17.8 6 Sudoeste 14 Sudoeste 0 -- -- 62
2020-03-12 15:00:00 18.4 6 Sudoeste 21 Sur 0 -- -- 59
2020-03-12 14:00:00 19.8 12 Sur 23 Sur 0 -- -- 51
2020-03-12 13:00:00 20.2 15 Sur 24 Sur 0 -- -- 49
2020-03-12 12:00:00 18.2 15 Sur 23 Sudeste 0 -- -- 53
2020-03-12 11:00:00 16.1 10 Sur 19 Sudeste 0 -- -- 60
2020-03-12 10:00:00 15.4 5 Sudeste 14 Sudeste 0 -- -- 61
2020-03-12 09:00:00 13.9 4 Sudeste 12 Sudeste 0 -- -- 65
2020-03-12 08:00:00 12.3 3 Este 9 Sudeste 0 -- -- 68
2020-03-12 07:00:00 13.8 5 Sudeste 16 Sur 0 -- -- 52
2020-03-12 06:00:00 14.8 6 Sur 22 Sur 0 -- -- 49
2020-03-12 05:00:00 15.9 10 Sur 18 Sudeste 0 -- -- 46
2020-03-12 04:00:00 16.5 3 Sudeste 7 Este 0 -- -- 48
2020-03-12 03:00:00 16.3 0 Calma 5 Sur 0 -- -- 51
2020-03-12 02:00:00 16.9 3 Norte 5 Nordeste 0 -- -- 52
2020-03-12 01:00:00 17.5 4 Nordeste 5 Nordeste 0 -- -- 46
2020-03-12 00:00:00 17.3 3 Norte 7 Noroeste 0 -- -- 49
2020-03-11 23:00:00 18.2 0 Calma 2 Sur 0 -- -- 45
2020-03-11 22:00:00 19.4 2 Sudoeste 10 Este 0 -- -- 42
2020-03-11 21:00:00 21.7 7 Este 15 Este 0 -- -- 36
2020-03-11 20:00:00 22 7 Este 14 Este 0 -- -- 37
2020-03-11 19:00:00 24 8 Este 15 Este 0 -- -- 34
2020-03-11 18:00:00 25.3 5 Este 17 Este 0 -- -- 32
2020-03-11 17:00:00 27.4 9 Este 19 Sur 0 -- -- 26
2020-03-11 16:00:00 26.5 7 Este 22 Sudeste 0 -- -- 30
2020-03-11 15:00:00 26 7 Sudeste 23 Este 0 -- -- 30
2020-03-11 14:00:00 25.8 7 Sudeste 21 Sudeste 0 -- -- 31
2020-03-11 13:00:00 26 12 Sudeste 22 Este 0 -- -- 29
2020-03-11 12:00:00 24.6 11 Sudeste 27 Este 0 -- -- 32
2020-03-11 11:00:00 22.2 12 Este 29 Este 0 -- -- 36
2020-03-11 10:00:00 19.5 13 Nordeste 24 Este 0 -- -- 41
2020-03-11 09:00:00 17.1 12 Este 23 Este 0 -- -- 46
2020-03-11 08:00:00 15.3 8 Este 16 Este 0 -- -- 51
2020-03-11 07:00:00 16 7 Este 12 Este 0 -- -- 48
2020-03-11 06:00:00 17.3 7 Este 16 Nordeste 0 -- -- 43
2020-03-11 05:00:00 16.2 6 Nordeste 10 Nordeste 0 -- -- 48
2020-03-11 04:00:00 17.4 6 Este 10 Este 0 -- -- 44
2020-03-11 03:00:00 17.3 8 Este 17 Este 0 -- -- 44
2020-03-11 02:00:00 17.9 9 Este 14 Este 0 -- -- 42
2020-03-11 01:00:00 17.4 5 Nordeste 6 Nordeste 0 -- -- 43
2020-03-11 00:00:00 18.1 4 Sur 10 Nordeste 0 -- -- 42
2020-03-10 23:00:00 19.1 8 Este 11 Este 0 -- -- 39
2020-03-10 22:00:00 19.5 5 Este 13 Sudeste 0 -- -- 38
2020-03-10 21:00:00 19.4 5 Sudeste 12 Sudeste 0 -- -- 38
2020-03-10 20:00:00 20.4 5 Sudeste 11 Sudeste 0 -- -- 37
2020-03-10 19:00:00 24.6 6 Sur 15 Sudeste 0 -- -- 29
2020-03-10 18:00:00 26.2 8 Este 17 Sudeste 0 -- -- 27
2020-03-10 17:00:00 26.9 5 Sudeste 21 Este 0 -- -- 25
2020-03-10 16:00:00 26.4 9 Este 17 Este 0 -- -- 24
2020-03-10 15:00:00 26.1 7 Este 22 Sudeste 0 -- -- 24
2020-03-10 14:00:00 24.8 12 Este 23 Nordeste 0 -- -- 25
2020-03-10 13:00:00 23.7 12 Este 28 Este 0 -- -- 27
2020-03-10 12:00:00 21.7 13 Este 25 Este 0 -- -- 30
2020-03-10 11:00:00 20.7 9 Sudeste 20 Nordeste 0 -- -- 30
2020-03-10 10:00:00 18.5 5 Este 18 Nordeste 0 -- -- 33
2020-03-10 09:00:00 15 9 Nordeste 22 Este 0 -- -- 38
2020-03-10 08:00:00 14.2 14 Este 21 Este 0 -- -- 36
2020-03-10 07:00:00 14.2 13 Este 15 Este 0 -- -- 33
2020-03-10 06:00:00 13.6 5 Norte 8 Nordeste 0 -- -- 37
2020-03-10 05:00:00 14 4 Nordeste 19 Nordeste 0 -- -- 35
2020-03-10 04:00:00 13.7 13 Nordeste 19 Nordeste 0 -- -- 38
2020-03-10 03:00:00 14.3 9 Nordeste 24 Nordeste 0 -- -- 39
2020-03-10 02:00:00 14.4 4 Este 31 Norte 0 -- -- 42
2020-03-10 01:00:00 13.6 16 Norte 21 Norte 0 -- -- 46
2020-03-10 00:00:00 12.6 6 Norte 15 Norte 0 -- -- 50
2020-03-09 23:00:00 13.7 12 Norte 19 Norte 0 -- -- 47
2020-03-09 22:00:00 15.1 18 Norte 30 Norte 0 -- -- 42
2020-03-09 21:00:00 15.6 21 Norte 30 Norte 0 -- -- 37
2020-03-09 20:00:00 16.2 14 Norte 21 Noroeste 0 -- -- 33
2020-03-09 19:00:00 18.7 18 Norte 33 Norte 0 -- -- 28
2020-03-09 18:00:00 20.2 22 Noroeste 35 Norte 0 -- -- 22
2020-03-09 17:00:00 21 21 Noroeste 30 Noroeste 0 -- -- 22
2020-03-09 16:00:00 22.2 15 Norte 31 Norte 0 -- -- 22
2020-03-09 15:00:00 22.1 18 Norte 28 Norte 0 -- -- 17
2020-03-09 14:00:00 21.3 10 Norte 29 Norte 0 -- -- 17
2020-03-09 13:00:00 19.4 5 Oeste 14 Sudoeste 0 -- -- 33
2020-03-09 12:00:00 17.7 6 Oeste 14 Sur 0 -- -- 41
2020-03-09 11:00:00 15.8 6 Sur 12 Sur 0 -- -- 42
2020-03-09 10:00:00 13.3 6 Sur 10 Sur 0 -- -- 55
2020-03-09 09:00:00 9.7 4 Sur 9 Sur 0 -- -- 66
2020-03-09 08:00:00 8.3 3 Norte 8 Noroeste 0 -- -- 62
2020-03-09 07:00:00 8.9 5 Norte 26 Norte 0 -- -- 68
2020-03-09 06:00:00 8.7 12 Norte 19 Noroeste 0 -- -- 88
2020-03-09 05:00:00 8.6 5 Norte 9 Norte 0 -- -- 88
2020-03-09 04:00:00 8.4 7 Norte 15 Norte 0 -- -- 84
2020-03-09 03:00:00 9.9 14 Norte 24 Norte 0 -- -- 77
2020-03-09 02:00:00 10.7 18 Norte 30 Norte 0 -- -- 64
2020-03-09 01:00:00 12.5 26 Norte 43 Norte 0 -- -- 54
2020-03-09 00:00:00 12.1 4 Norte 27 Noroeste 0 -- -- 52
2020-03-08 23:00:00 12.5 14 Norte 36 Norte 0 -- -- 54
2020-03-08 22:00:00 14 26 Norte 32 Norte 0 -- -- 51
2020-03-08 21:00:00 14.3 11 Norte 16 Norte 0 -- -- 48
2020-03-08 20:00:00 14.9 10 Norte 25 Norte 0 -- -- 43
2020-03-08 19:00:00 16.5 19 Norte 32 Norte 0 -- -- 34
2020-03-08 18:00:00 19.1 20 Norte 28 Norte 0 -- -- 30
2020-03-08 17:00:00 20.5 15 Noroeste 24 Oeste 0 -- -- 17
2020-03-08 16:00:00 21.7 10 Noroeste 21 Oeste 0 -- -- 20
2020-03-08 15:00:00 21 7 Oeste 19 Oeste 0 -- -- 23
2020-03-08 14:00:00 20.2 9 Oeste 20 Oeste 0 -- -- 24
2020-03-08 13:00:00 19.4 9 Oeste 15 Sudoeste 0 -- -- 26
2020-03-08 12:00:00 18.3 5 Oeste 16 Oeste 0 -- -- 27
2020-03-08 11:00:00 17.1 6 Oeste 12 Sudoeste 0 -- -- 30
2020-03-08 10:00:00 15 0 Calma 7 Nordeste 0 -- -- 37
2020-03-08 09:00:00 11.4 6 Nordeste 13 Nordeste 0 -- -- 45
2020-03-08 08:00:00 10.3 8 Nordeste 12 Nordeste 0 -- -- 46
2020-03-08 07:00:00 9.9 3 Nordeste 7 Nordeste 0 -- -- 49
2020-03-08 06:00:00 10.7 4 Nordeste 13 Nordeste 0 -- -- 47
2020-03-08 05:00:00 11 9 Nordeste 15 Nordeste 0 -- -- 46
2020-03-08 04:00:00 11.4 11 Este 15 Este 0 -- -- 44
2020-03-08 03:00:00 11.6 10 Este 15 Este 0 -- -- 44
2020-03-08 02:00:00 12.1 8 Este 17 Este 0 -- -- 43
2020-03-08 01:00:00 12.2 9 Este 14 Este 0 -- -- 43
2020-03-08 00:00:00 11.8 10 Nordeste 17 Norte 0 -- -- 46
2020-03-07 23:00:00 12.4 13 Norte 18 Norte 0 -- -- 45
2020-03-07 22:00:00 13.1 12 Norte 17 Norte 0 -- -- 43
2020-03-07 21:00:00 14 10 Nordeste 15 Norte 0 -- -- 40
2020-03-07 20:00:00 15.1 11 Norte 18 Norte 0 -- -- 37
2020-03-07 19:00:00 17.8 8 Norte 15 Norte 0 -- -- 33
2020-03-07 18:00:00 19.2 6 Norte 23 Nordeste 0 -- -- 28
2020-03-07 17:00:00 19.3 10 Norte 21 Norte 0 -- -- 28
2020-03-07 16:00:00 19 10 Norte 21 Norte 0 -- -- 29
2020-03-07 15:00:00 18.5 7 Este 22 Nordeste 0 -- -- 29
2020-03-07 14:00:00 17 4 Sudeste 29 Nordeste 0 -- -- 31
2020-03-07 13:00:00 15.7 10 Este 26 Este 0 -- -- 35
2020-03-07 12:00:00 13.8 12 Este 28 Nordeste 0 -- -- 38
2020-03-07 11:00:00 13.9 14 Nordeste 27 Nordeste 0 -- -- 35
2020-03-07 10:00:00 11.8 14 Nordeste 25 Nordeste 0 -- -- 40
2020-03-07 09:00:00 9.4 11 Nordeste 20 Nordeste 0 -- -- 47
2020-03-07 08:00:00 7.2 8 Norte 24 Norte 0 -- -- 55
2020-03-07 07:00:00 7.4 14 Norte 30 Norte 0 -- -- 57
2020-03-07 06:00:00 6.7 13 Norte 19 Norte 0 -- -- 61
2020-03-07 05:00:00 6.9 8 Norte 23 Nordeste 0 -- -- 62
2020-03-07 04:00:00 8.7 14 Nordeste 29 Norte 0 -- -- 55
2020-03-07 03:00:00 8.8 3 Este 41 Norte 0 -- -- 56
2020-03-07 02:00:00 9 21 Norte 37 Norte 0 -- -- 58
2020-03-07 01:00:00 9.3 23 Norte 34 Norte 0 -- -- 59
2020-03-07 00:00:00 8.5 14 Norte 24 Norte 0 -- -- 65
2020-03-06 23:00:00 9.7 20 Norte 37 Norte 0 -- -- 61
2020-03-06 22:00:00 10.7 23 Norte 30 Noroeste 0 -- -- 59
2020-03-06 21:00:00 11 12 Noroeste 25 Norte 0 -- -- 59
2020-03-06 20:00:00 11.9 17 Noroeste 34 Noroeste 0 -- -- 56
2020-03-06 19:00:00 13.7 17 Noroeste 32 Noroeste 0 -- -- 50
2020-03-06 18:00:00 15 16 Norte 40 Norte 0 -- -- 44
2020-03-06 17:00:00 15.5 18 Noroeste 37 Noroeste 0 -- -- 45
2020-03-06 16:00:00 15.4 25 Noroeste 39 Norte 0 -- -- 44
2020-03-06 15:00:00 15.1 25 Noroeste 45 Norte 0 -- -- 43
2020-03-06 14:00:00 14.8 20 Noroeste 45 Noroeste 0 -- -- 48
2020-03-06 13:00:00 13.6 25 Norte 40 Norte 0 -- -- 56
2020-03-06 12:00:00 12.9 23 Noroeste 45 Norte 0 -- -- 59
2020-03-06 11:00:00 11.2 29 Noroeste 48 Norte 0 -- -- 65
2020-03-06 10:00:00 10.3 27 Norte 42 Norte 0 -- -- 73
2020-03-06 09:00:00 8.6 13 Noroeste 32 Noroeste 0 -- -- 91
2020-03-06 08:00:00 7.9 9 Noroeste 27 Noroeste 0 -- -- 95
2020-03-06 07:00:00 7.6 11 Noroeste 21 Noroeste 0 -- -- 94
2020-03-06 06:00:00 7.4 9 Noroeste 22 Noroeste 0 -- -- 94
2020-03-06 05:00:00 7.3 11 Noroeste 21 Noroeste 0 -- -- 93
2020-03-06 04:00:00 7.6 13 Noroeste 25 Noroeste 0 -- -- 88
2020-03-06 03:00:00 7.3 7 Noroeste 14 Noroeste 0 -- -- 88
2020-03-06 02:00:00 7.9 9 Noroeste 29 Noroeste 0 -- -- 84
2020-03-06 01:00:00 8.5 16 Noroeste 31 Noroeste 0 -- -- 82
2020-03-06 00:00:00 9.2 18 Noroeste 30 Norte 0 -- -- 78
2020-03-05 23:00:00 9.9 17 Noroeste 34 Noroeste 0 -- -- 71
2020-03-05 22:00:00 10.7 19 Noroeste 35 Noroeste 0 -- -- 71
2020-03-05 21:00:00 11.6 15 Noroeste 27 Noroeste 0 -- -- 67
2020-03-05 20:00:00 12.6 19 Noroeste 32 Noroeste 0 -- -- 62
2020-03-05 19:00:00 13.6 20 Noroeste 37 Noroeste 0 -- -- 57
2020-03-05 18:00:00 15.1 22 Noroeste 40 Norte 0 -- -- 54
2020-03-05 17:00:00 16.1 18 Noroeste 42 Noroeste 0 -- -- 53
2020-03-05 16:00:00 16 22 Noroeste 39 Noroeste 0 -- -- 55
2020-03-05 15:00:00 15.1 26 Noroeste 44 Noroeste 0 -- -- 58
2020-03-05 14:00:00 14.4 31 Noroeste 46 Norte 0 -- -- 64
2020-03-05 13:00:00 13.3 22 Noroeste 36 Noroeste 0.2 -- -- 78
2020-03-05 12:00:00 11.9 13 Oeste 31 Noroeste 0 -- -- 95
2020-03-05 11:00:00 11.8 10 Sudoeste 24 Sudoeste 0 -- -- 95
2020-03-05 10:00:00 10.9 10 Oeste 20 Oeste 0 -- -- 98
2020-03-05 09:00:00 10.5 5 Oeste 11 Sudoeste 0 -- -- 98
2020-03-05 08:00:00 9.9 4 Oeste 10 Noroeste 0 -- -- 98
2020-03-05 07:00:00 10.2 7 Noroeste 19 Noroeste 0 -- -- 98
2020-03-05 06:00:00 10 11 Noroeste 18 Noroeste 0 -- -- 97
2020-03-05 05:00:00 9.2 8 Noroeste 13 Noroeste 0 -- -- 97
2020-03-05 04:00:00 9.1 4 Norte 9 Norte 0 -- -- 95
2020-03-05 03:00:00 9.4 3 Norte 9 Noroeste 0 -- -- 93
2020-03-05 02:00:00 9.5 3 Norte 9 Noroeste 0 -- -- 89
2020-03-05 01:00:00 10.5 4 Norte 12 Noroeste 0 -- -- 83
2020-03-05 00:00:00 12.6 2 Noroeste 10 Oeste 0 -- -- 75
2020-03-04 23:00:00 12.5 0 Calma 4 Noroeste 0 -- -- 74
2020-03-04 22:00:00 12.6 3 Noroeste 4 Noroeste 0 -- -- 74
2020-03-04 21:00:00 13.2 0 Calma 5 Norte 0 -- -- 71
2020-03-04 20:00:00 14.2 3 Norte 13 Noroeste 0 -- -- 69
2020-03-04 19:00:00 16.7 10 Norte 23 Noroeste 0 -- -- 60
2020-03-04 18:00:00 17.4 13 Noroeste 27 Noroeste 0 -- -- 57
2020-03-04 17:00:00 17.6 10 Noroeste 24 Norte 0 -- -- 60
2020-03-04 16:00:00 17.8 14 Noroeste 28 Norte 0 -- -- 61
2020-03-04 15:00:00 17.8 12 Noroeste 27 Noroeste 0 -- -- 61
2020-03-04 14:00:00 16.9 9 Oeste 23 Oeste 0 -- -- 70
2020-03-04 13:00:00 16.4 10 Oeste 22 Oeste 0 -- -- 71
2020-03-04 12:00:00 15.1 11 Oeste 22 Noroeste 0 -- -- 74
2020-03-04 11:00:00 14.2 8 Norte 17 Norte 0 -- -- 77
2020-03-04 10:00:00 12.9 6 Norte 10 Noroeste 0 -- -- 87
2020-03-04 09:00:00 10.6 3 Norte 4 Norte 0 -- -- 97
2020-03-04 08:00:00 9.9 3 Norte 6 Noroeste 0 -- -- 97
2020-03-04 07:00:00 9.5 5 Norte 14 Noroeste 0 -- -- 97
2020-03-04 06:00:00 10 5 Noroeste 14 Noroeste 0 -- -- 96
2020-03-04 05:00:00 10.5 4 Norte 8 Noroeste 0 -- -- 98
2020-03-04 04:00:00 9.4 2 Norte 8 Norte 0 -- -- 97
2020-03-04 03:00:00 9.7 3 Norte 5 Norte 0 -- -- 96
2020-03-04 02:00:00 10.5 3 Noroeste 5 Noroeste 0 -- -- 96
2020-03-04 01:00:00 10.8 0 Calma 5 Oeste 0 -- -- 96
2020-03-04 00:00:00 10.9 0 Calma 6 Noroeste 0 -- -- 94